createdAt,value
2018-02-14T00:00:54.714Z,26.40
2018-02-14T00:03:22.888Z,23.65
2018-02-14T00:05:51.054Z,25.48
2018-02-14T00:08:19.214Z,26.42
2018-02-14T00:10:47.408Z,30.08
2018-02-14T00:13:15.580Z,25.30
2018-02-14T00:15:43.713Z,31.60
2018-02-14T00:18:12.622Z,22.55
2018-02-14T00:20:41.134Z,28.85
2018-02-14T00:23:09.274Z,26.98
2018-02-14T00:25:37.419Z,21.75
2018-02-14T00:28:05.659Z,27.65
2018-02-14T00:30:34.319Z,26.60
2018-02-14T00:33:02.457Z,24.80
2018-02-14T00:35:31.385Z,34.45
2018-02-14T00:38:00.058Z,25.37
2018-02-14T00:40:28.198Z,35.83
2018-02-14T00:42:56.357Z,38.10
2018-02-14T00:45:24.597Z,25.27
2018-02-14T00:47:52.741Z,25.80
2018-02-14T00:50:20.901Z,26.48
2018-02-14T00:52:49.809Z,34.58
2018-02-14T00:55:17.948Z,26.23
2018-02-14T00:57:46.381Z,28.23
2018-02-14T01:00:14.525Z,26.40
2018-02-14T01:02:43.433Z,32.10
2018-02-14T01:05:11.589Z,31.15
2018-02-14T01:07:40.495Z,30.05
2018-02-14T01:10:08.649Z,25.60
2018-02-14T01:12:37.679Z,34.92
2018-02-14T01:15:05.822Z,30.37
2018-02-14T01:17:33.980Z,31.40
2018-02-14T01:20:09.461Z,28.65
2018-02-14T01:22:37.734Z,34.75
2018-02-14T01:25:06.497Z,41.20
2018-02-14T01:27:34.654Z,28.48
2018-02-14T01:30:03.592Z,30.05
2018-02-14T01:32:31.762Z,31.42
2018-02-14T01:34:59.900Z,26.30
2018-02-14T01:37:28.842Z,31.67
2018-02-14T01:39:56.982Z,29.20
2018-02-14T01:42:25.117Z,32.25
2018-02-14T01:44:53.832Z,24.65
2018-02-14T01:47:21.964Z,30.80
2018-02-14T01:49:50.133Z,28.87
2018-02-14T01:52:18.269Z,39.38
2018-02-14T01:54:46.448Z,27.42
2018-02-14T01:57:14.602Z,34.03
2018-02-14T01:59:42.750Z,25.52
2018-02-14T02:02:11.669Z,26.50
2018-02-14T02:04:40.178Z,31.30
2018-02-14T02:07:08.410Z,31.45
2018-02-14T02:09:36.559Z,31.50
2018-02-14T02:12:05.468Z,29.05
2018-02-14T02:14:33.641Z,32.97
2018-02-14T02:17:01.837Z,31.60
2018-02-14T02:19:29.977Z,25.50
2018-02-14T02:21:58.917Z,31.37
2018-02-14T02:24:27.073Z,27.90
2018-02-14T02:26:55.209Z,26.12
2018-02-14T02:29:24.147Z,26.95
2018-02-14T02:31:52.293Z,32.17
2018-02-14T02:34:20.433Z,29.33
2018-02-14T02:36:48.609Z,37.65
2018-02-14T02:39:35.565Z,30.08
2018-02-14T02:42:03.741Z,27.52
2018-02-14T02:44:31.886Z,27.55
2018-02-14T02:47:00.050Z,28.35
2018-02-14T02:49:28.959Z,29.45
2018-02-14T02:51:57.140Z,36.67
2018-02-14T02:54:25.282Z,24.98
2018-02-14T02:56:54.218Z,29.08
2018-02-14T02:59:22.394Z,34.88
2018-02-14T03:01:50.539Z,31.48
2018-02-14T03:04:18.677Z,38.58
2018-02-14T03:06:47.452Z,30.45
2018-02-14T03:09:15.593Z,33.45
2018-02-14T03:11:43.777Z,29.98
2018-02-14T03:14:11.961Z,30.58
2018-02-14T03:16:40.307Z,28.27
2018-02-14T03:19:08.481Z,31.87
2018-02-14T03:21:36.632Z,28.98
2018-02-14T03:24:04.775Z,41.00
2018-02-14T03:26:32.931Z,34.40
2018-02-14T03:29:01.074Z,30.35
2018-02-14T03:31:29.247Z,29.08
2018-02-14T03:33:57.410Z,25.25
2018-02-14T03:36:25.553Z,30.40
2018-02-14T03:38:54.515Z,29.75
2018-02-14T03:41:22.758Z,26.98
2018-02-14T03:43:50.902Z,29.20
2018-02-14T03:46:19.074Z,29.27
2018-02-14T03:48:47.987Z,26.15
2018-02-14T03:51:16.165Z,32.17
2018-02-14T03:53:44.337Z,27.30
2018-02-14T03:56:12.478Z,28.10
2018-02-14T03:58:41.389Z,27.40
2018-02-14T04:01:09.677Z,30.23
2018-02-14T04:03:37.829Z,32.92
2018-02-14T04:06:06.129Z,30.70
2018-02-14T04:08:34.314Z,29.50
2018-02-14T04:11:02.482Z,28.55
2018-02-14T04:13:30.629Z,47.62
2018-02-14T04:15:58.785Z,32.30
2018-02-14T04:18:26.992Z,29.00
2018-02-14T04:20:55.157Z,39.35
2018-02-14T04:23:23.548Z,27.58
2018-02-14T04:25:51.694Z,30.55
2018-02-14T04:28:21.153Z,35.67
2018-02-14T04:30:49.314Z,27.50
2018-02-14T04:33:17.466Z,28.92
2018-02-14T04:35:45.653Z,47.05
2018-02-14T04:38:13.803Z,33.03
2018-02-14T04:40:41.942Z,33.90
2018-02-14T04:43:10.870Z,38.42
2018-02-14T04:45:39.401Z,28.10
2018-02-14T04:48:07.558Z,37.22
2018-02-14T04:50:35.736Z,35.83
2018-02-14T04:53:03.873Z,32.67
2018-02-14T04:55:32.045Z,39.28
2018-02-14T04:58:00.202Z,31.60
2018-02-14T05:00:28.353Z,35.63
2018-02-14T05:02:57.285Z,33.10
2018-02-14T05:05:25.922Z,36.33
2018-02-14T05:07:54.837Z,30.90
2018-02-14T05:10:23.329Z,47.40
2018-02-14T05:12:51.478Z,35.50
2018-02-14T05:15:19.621Z,35.03
2018-02-14T05:17:47.898Z,40.72
2018-02-14T05:20:16.126Z,36.35
2018-02-14T05:22:44.298Z,34.40
2018-02-14T05:25:12.442Z,38.83
2018-02-14T05:27:40.590Z,35.25
2018-02-14T05:30:08.762Z,37.90
2018-02-14T05:32:37.825Z,33.80
2018-02-14T05:35:06.081Z,35.22
2018-02-14T05:37:34.243Z,41.03
2018-02-14T05:40:02.428Z,39.35
2018-02-14T05:42:30.610Z,39.92
2018-02-14T05:44:58.762Z,39.47
2018-02-14T05:47:26.909Z,39.75
2018-02-14T05:49:55.858Z,41.28
2018-02-14T05:52:24.006Z,39.35
2018-02-14T05:54:52.193Z,42.20
2018-02-14T05:57:20.461Z,35.10
2018-02-14T05:59:49.042Z,40.90
2018-02-14T06:02:17.569Z,31.27
2018-02-14T06:04:45.765Z,37.40
2018-02-14T06:07:14.688Z,41.08
2018-02-14T06:09:42.833Z,39.67
2018-02-14T06:12:11.025Z,41.10
2018-02-14T06:14:39.488Z,32.28
2018-02-14T06:17:07.629Z,32.88
2018-02-14T06:19:35.814Z,40.40
2018-02-14T06:22:04.738Z,39.08
2018-02-14T06:24:32.886Z,33.83
2018-02-14T06:27:02.174Z,44.50
2018-02-14T06:29:31.081Z,40.22
2018-02-14T06:32:00.034Z,53.08
2018-02-14T06:34:28.237Z,38.55
2018-02-14T06:36:57.150Z,46.92
2018-02-14T06:39:25.498Z,44.70
2018-02-14T06:41:54.435Z,37.13
2018-02-14T06:44:22.584Z,38.88
2018-02-14T06:46:50.770Z,43.83
2018-02-14T06:49:19.325Z,34.40
2018-02-14T06:51:47.488Z,35.28
2018-02-14T06:54:16.430Z,45.95
2018-02-14T06:56:44.584Z,51.67
2018-02-14T06:59:12.721Z,54.75
2018-02-14T07:01:40.887Z,38.25
2018-02-14T07:04:09.030Z,58.28
2018-02-14T07:06:37.174Z,41.20
2018-02-14T07:09:05.446Z,36.72
2018-02-14T07:11:33.593Z,45.22
2018-02-14T07:14:02.525Z,40.20
2018-02-14T07:16:30.802Z,45.92
2018-02-14T07:18:58.950Z,35.55
2018-02-14T07:21:27.092Z,41.13
2018-02-14T07:23:55.258Z,44.38
2018-02-14T07:26:23.441Z,44.55
2018-02-14T07:28:52.348Z,35.50
2018-02-14T07:31:21.305Z,36.97
2018-02-14T07:33:49.440Z,40.38
2018-02-14T07:36:17.588Z,47.17
2018-02-14T07:38:45.817Z,36.00
2018-02-14T07:41:13.958Z,51.40
2018-02-14T07:43:42.227Z,46.15
2018-02-14T07:46:10.361Z,40.35
2018-02-14T07:48:39.258Z,39.65
2018-02-14T07:51:08.193Z,40.70
2018-02-14T07:53:36.333Z,40.55
2018-02-14T07:56:04.530Z,37.92
2018-02-14T07:58:32.702Z,43.95
2018-02-14T08:01:00.841Z,44.42
2018-02-14T08:03:29.770Z,46.33
2018-02-14T08:05:57.925Z,50.28
2018-02-14T08:08:26.057Z,39.95
2018-02-14T08:10:54.190Z,37.47
2018-02-14T08:13:22.354Z,44.47
2018-02-14T08:15:50.488Z,46.00
2018-02-14T08:18:19.385Z,51.40
2018-02-14T08:20:49.512Z,58.40
2018-02-14T08:23:17.650Z,54.60
2018-02-14T08:25:45.883Z,47.92
2018-02-14T08:28:14.046Z,48.13
2018-02-14T08:30:42.193Z,40.53
2018-02-14T08:33:11.197Z,51.05
2018-02-14T08:35:39.357Z,55.75
2018-02-14T08:38:08.265Z,49.78
2018-02-14T08:40:37.285Z,63.17
2018-02-14T08:43:05.472Z,51.42
2018-02-14T08:45:33.630Z,53.97
2018-02-14T08:48:02.326Z,44.88
2018-02-14T08:50:30.492Z,50.97
2018-02-14T08:52:58.638Z,40.80
2018-02-14T08:55:27.030Z,45.67
2018-02-14T08:57:55.187Z,50.97
2018-02-14T09:00:23.337Z,51.53
2018-02-14T09:02:52.241Z,51.80
2018-02-14T09:05:20.393Z,51.17
2018-02-14T09:07:49.293Z,50.55
2018-02-14T09:10:18.223Z,44.38
2018-02-14T09:12:46.365Z,55.58
2018-02-14T09:15:14.661Z,45.72
2018-02-14T09:17:42.833Z,44.53
2018-02-14T09:20:11.134Z,44.92
2018-02-14T09:22:45.353Z,39.70
2018-02-14T09:25:13.599Z,45.00
2018-02-14T09:27:41.773Z,44.03
2018-02-14T09:30:09.911Z,43.85
2018-02-14T09:32:38.810Z,59.03
2018-02-14T09:35:07.762Z,43.92
2018-02-14T09:37:35.896Z,44.80
2018-02-14T09:40:04.029Z,49.17
2018-02-14T09:42:32.965Z,47.62
2018-02-14T09:45:01.117Z,44.80
2018-02-14T09:47:29.261Z,52.75
2018-02-14T09:49:58.178Z,46.95
2018-02-14T09:52:26.317Z,48.58
2018-02-14T09:54:54.481Z,62.28
2018-02-14T09:57:22.719Z,39.92
2018-02-14T09:59:51.361Z,50.28
2018-02-14T10:02:21.026Z,53.13
2018-02-14T10:04:49.178Z,46.33
2018-02-14T10:07:17.317Z,44.30
2018-02-14T10:09:46.253Z,59.20
2018-02-14T10:12:14.918Z,52.13
2018-02-14T10:14:43.734Z,48.20
2018-02-14T10:17:11.898Z,63.30
2018-02-14T10:19:40.042Z,60.77
2018-02-14T10:22:08.332Z,60.95
2018-02-14T10:24:36.467Z,57.03
2018-02-14T10:27:05.374Z,49.20
2018-02-14T10:29:33.573Z,55.73
2018-02-14T10:32:01.714Z,54.87
2018-02-14T10:34:29.860Z,44.00
2018-02-14T10:36:58.098Z,53.20
2018-02-14T10:39:26.265Z,48.90
2018-02-14T10:41:54.417Z,48.00
2018-02-14T10:44:22.629Z,49.93
2018-02-14T10:46:50.784Z,42.30
2018-02-14T10:49:19.032Z,52.70
2018-02-14T10:51:47.976Z,46.10
2018-02-14T10:54:16.128Z,50.23
2018-02-14T10:56:44.293Z,45.87
2018-02-14T10:59:13.181Z,45.40
2018-02-14T11:01:46.999Z,48.57
2018-02-14T11:04:21.317Z,45.80
2018-02-14T11:06:50.312Z,40.63
2018-02-14T11:09:18.494Z,44.27
2018-02-14T11:11:47.462Z,44.17
2018-02-14T11:14:16.215Z,42.97
2018-02-14T11:16:45.132Z,62.77
2018-02-14T11:19:13.285Z,39.93
2018-02-14T11:21:41.484Z,37.53
2018-02-14T11:24:09.634Z,32.67
2018-02-14T11:26:37.784Z,45.13
2018-02-14T11:29:06.740Z,39.97
2018-02-14T11:31:34.890Z,40.73
2018-02-14T11:34:03.037Z,40.03
2018-02-14T11:36:31.961Z,45.57
2018-02-14T11:39:00.102Z,40.93
2018-02-14T11:41:28.401Z,40.30
2018-02-14T11:43:56.858Z,41.27
2018-02-14T11:46:25.824Z,34.77
2018-02-14T11:48:53.979Z,39.53
2018-02-14T11:51:22.217Z,35.50
2018-02-14T11:53:50.386Z,31.73
2018-02-14T11:56:18.638Z,42.43
2018-02-14T11:58:47.540Z,37.07
2018-02-14T12:01:15.833Z,37.70
2018-02-14T12:03:43.969Z,38.70
2018-02-14T12:06:13.122Z,43.00
2018-02-14T12:08:42.400Z,36.73
2018-02-14T12:11:10.549Z,44.27
2018-02-14T12:13:38.692Z,34.60
2018-02-14T12:16:06.930Z,33.67
2018-02-14T12:18:35.073Z,32.90
2018-02-14T12:21:04.086Z,29.50
2018-02-14T12:23:32.789Z,30.97
2018-02-14T12:26:00.943Z,33.87
2018-02-14T12:28:29.138Z,36.73
2018-02-14T12:30:57.287Z,39.47
2018-02-14T12:33:25.431Z,32.43
2018-02-14T12:35:53.609Z,30.90
2018-02-14T12:38:21.917Z,27.53
2018-02-14T12:40:50.418Z,26.27
2018-02-14T12:43:18.665Z,30.57
2018-02-14T12:45:46.825Z,30.20
2018-02-14T12:48:14.999Z,31.50
2018-02-14T12:50:43.251Z,40.67
2018-02-14T12:53:12.170Z,31.47
2018-02-14T12:55:40.557Z,29.73
2018-02-14T12:58:08.700Z,26.23
2018-02-14T13:00:36.900Z,26.67
2018-02-14T13:03:05.221Z,32.43
2018-02-14T13:05:33.354Z,34.80
2018-02-14T13:08:01.496Z,31.30
2018-02-14T13:10:29.702Z,34.13
2018-02-14T13:12:57.877Z,36.80
2018-02-14T13:15:26.137Z,36.97
2018-02-14T13:17:54.337Z,37.67
2018-02-14T13:20:22.994Z,33.13
2018-02-14T13:22:51.146Z,38.90
2018-02-14T13:25:19.616Z,38.83
2018-02-14T13:27:48.529Z,35.17
2018-02-14T13:30:16.817Z,36.33
2018-02-14T13:32:45.446Z,39.40
2018-02-14T13:35:14.447Z,35.77
2018-02-14T13:37:43.402Z,34.83
2018-02-14T13:40:11.548Z,33.53
2018-02-14T13:42:39.730Z,34.80
2018-02-14T13:45:07.929Z,30.30
2018-02-14T13:47:36.080Z,40.83
2018-02-14T13:50:04.226Z,34.57
2018-02-14T13:52:32.401Z,80.93
2018-02-14T13:55:00.543Z,62.13
2018-02-14T13:57:28.825Z,31.97
2018-02-14T13:59:58.474Z,44.20
2018-02-14T14:02:26.621Z,81.53
2018-02-14T14:04:55.665Z,115.60
2018-02-14T14:07:24.070Z,72.80
2018-02-14T14:09:52.223Z,55.20
2018-02-14T14:12:20.398Z,35.77
2018-02-14T14:14:48.546Z,40.23
2018-02-14T14:17:16.702Z,38.20
2018-02-14T14:19:44.893Z,58.10
2018-02-14T14:22:13.047Z,65.03
2018-02-14T14:24:41.198Z,67.77
2018-02-14T14:27:09.381Z,44.20
2018-02-14T14:29:37.585Z,42.80
2018-02-14T14:32:05.738Z,36.17
2018-02-14T14:34:34.318Z,34.97
2018-02-14T14:37:02.909Z,45.63
2018-02-14T14:39:31.081Z,59.27
2018-02-14T14:41:59.226Z,54.00
2018-02-14T14:44:27.384Z,59.80
2018-02-14T14:46:56.377Z,51.00
2018-02-14T14:49:25.296Z,55.70
2018-02-14T14:51:53.485Z,39.57
2018-02-14T14:54:21.646Z,69.57
2018-02-14T14:56:49.786Z,59.63
2018-02-14T14:59:18.709Z,53.63
2018-02-14T15:01:46.894Z,70.07
2018-02-14T15:04:15.183Z,50.90
2018-02-14T15:06:43.329Z,57.43
2018-02-14T15:09:11.518Z,48.20
2018-02-14T15:11:39.694Z,50.10
2018-02-14T15:14:07.838Z,49.33
2018-02-14T15:16:36.015Z,47.60
2018-02-14T15:19:04.161Z,42.37
2018-02-14T15:21:33.074Z,36.63
2018-02-14T15:24:01.241Z,36.60
2018-02-14T15:26:29.381Z,45.37
2018-02-14T15:28:57.534Z,43.43
2018-02-14T15:31:25.714Z,42.73
2018-02-14T15:33:53.860Z,55.50
2018-02-14T15:36:22.031Z,49.37
2018-02-14T15:38:50.207Z,64.17
2018-02-14T15:41:18.341Z,78.43
2018-02-14T15:43:47.272Z,108.10
2018-02-14T15:46:15.647Z,83.93
2018-02-14T15:48:43.797Z,68.93
2018-02-14T15:51:11.941Z,55.07
2018-02-14T15:53:40.910Z,66.00
2018-02-14T15:56:09.053Z,63.80
2018-02-14T15:58:37.201Z,66.37
2018-02-14T16:01:05.378Z,83.27
2018-02-14T16:03:33.529Z,74.80
2018-02-14T16:06:02.432Z,60.47
2018-02-14T16:08:30.606Z,66.00
2018-02-14T16:10:58.756Z,59.75
2018-02-14T16:13:27.692Z,64.47
2018-02-14T16:15:55.848Z,75.65
2018-02-14T16:18:23.990Z,65.18
2018-02-14T16:20:52.210Z,68.47
2018-02-14T16:23:20.345Z,59.75
2018-02-14T16:25:49.270Z,66.05
2018-02-14T16:28:17.446Z,63.13
2018-02-14T16:30:45.585Z,65.30
2018-02-14T16:33:14.514Z,63.30
2018-02-14T16:35:42.686Z,66.32
2018-02-14T16:38:10.824Z,63.45
2018-02-14T16:40:39.738Z,54.53
2018-02-14T16:43:07.885Z,62.88
2018-02-14T16:45:36.809Z,63.17
2018-02-14T16:48:04.982Z,59.15
2018-02-14T16:50:33.158Z,57.65
2018-02-14T16:53:01.304Z,70.82
2018-02-14T16:55:29.974Z,63.08
2018-02-14T16:57:58.936Z,71.75
2018-02-14T17:00:27.905Z,66.15
2018-02-14T17:02:56.065Z,69.82
2018-02-14T17:05:24.205Z,82.43
2018-02-14T17:07:53.276Z,65.95
2018-02-14T17:10:21.470Z,79.15
2018-02-14T17:12:50.365Z,70.28
2018-02-14T17:15:19.388Z,75.47
2018-02-14T17:17:47.564Z,72.90
2018-02-14T17:20:15.722Z,68.82
2018-02-14T17:22:43.913Z,74.07
2018-02-14T17:25:12.178Z,63.38
2018-02-14T17:27:40.313Z,72.53
2018-02-14T17:30:09.220Z,66.97
2018-02-14T17:32:38.051Z,74.60
2018-02-14T17:35:06.189Z,77.37
2018-02-14T17:37:34.321Z,74.62
2018-02-14T17:40:02.470Z,78.28
2018-02-14T17:42:30.602Z,89.53
2018-02-14T17:44:58.790Z,80.20
2018-02-14T17:47:26.921Z,76.68
2018-02-14T17:49:55.862Z,89.57
2018-02-14T17:52:24.030Z,109.50
2018-02-14T17:54:52.171Z,122.47
2018-02-14T17:57:21.321Z,161.50
2018-02-14T17:59:49.474Z,171.18
2018-02-14T18:02:17.622Z,144.65
2018-02-14T18:04:45.917Z,115.43
2018-02-14T18:07:14.953Z,105.70
2018-02-14T18:09:44.014Z,86.32
2018-02-14T18:12:12.183Z,125.22
2018-02-14T18:14:40.338Z,116.85
2018-02-14T18:17:08.497Z,97.28
2018-02-14T18:19:36.634Z,99.68
2018-02-14T18:22:05.598Z,128.25
2018-02-14T18:24:33.764Z,109.22
2018-02-14T18:27:02.733Z,104.95
2018-02-14T18:29:30.882Z,98.57
2018-02-14T18:32:00.024Z,151.95
2018-02-14T18:34:28.202Z,123.57
2018-02-14T18:36:56.654Z,116.28
2018-02-14T18:39:25.018Z,95.62
2018-02-14T18:41:53.937Z,99.28
2018-02-14T18:44:22.076Z,86.25
2018-02-14T18:46:51.020Z,88.30
2018-02-14T18:49:19.202Z,99.62
2018-02-14T18:51:47.346Z,86.20
2018-02-14T18:54:15.558Z,101.28
2018-02-14T18:56:43.708Z,94.05
2018-02-14T18:59:11.882Z,85.15
2018-02-14T19:01:40.067Z,85.60
2018-02-14T19:04:08.318Z,86.05
2018-02-14T19:06:36.461Z,93.65
2018-02-14T19:09:04.822Z,81.40
2018-02-14T19:11:32.962Z,102.43
2018-02-14T19:14:01.113Z,108.78
2018-02-14T19:16:29.489Z,90.25
2018-02-14T19:18:57.626Z,93.72
2018-02-14T19:21:26.563Z,85.00
2018-02-14T19:23:54.827Z,75.78
2018-02-14T19:26:22.995Z,87.28
2018-02-14T19:28:51.174Z,96.18
2018-02-14T19:31:19.340Z,78.60
2018-02-14T19:33:47.510Z,82.50
2018-02-14T19:36:15.669Z,75.25
2018-02-14T19:38:43.824Z,77.50
2018-02-14T19:41:12.753Z,75.55
2018-02-14T19:43:40.907Z,78.20
2018-02-14T19:46:09.058Z,93.68
2018-02-14T19:48:37.982Z,78.22
2018-02-14T19:51:06.685Z,77.50
2018-02-14T19:53:35.749Z,82.03
2018-02-14T19:56:03.919Z,86.35
2018-02-14T19:58:32.073Z,76.68
2018-02-14T20:01:00.986Z,70.03
2018-02-14T20:03:29.274Z,79.82
2018-02-14T20:05:57.414Z,107.85
2018-02-14T20:08:26.337Z,135.52
2018-02-14T20:10:54.718Z,91.03
2018-02-14T20:13:22.854Z,75.18
2018-02-14T20:15:51.782Z,80.32
2018-02-14T20:18:19.977Z,94.22
2018-02-14T20:20:48.119Z,74.82
2018-02-14T20:23:16.290Z,84.37
2018-02-14T20:25:44.582Z,83.47
2018-02-14T20:28:12.722Z,105.90
2018-02-14T20:30:40.861Z,98.30
2018-02-14T20:33:09.026Z,114.25
2018-02-14T20:35:37.377Z,79.15
2018-02-14T20:38:06.276Z,83.72
2018-02-14T20:40:34.566Z,88.30
2018-02-14T20:43:02.707Z,90.18
2018-02-14T20:45:30.855Z,87.78
2018-02-14T20:47:59.014Z,84.65
2018-02-14T20:50:27.926Z,92.47
2018-02-14T20:52:56.093Z,108.95
2018-02-14T20:55:24.231Z,76.85
2018-02-14T20:57:52.373Z,92.70
2018-02-14T21:00:20.545Z,93.18
2018-02-14T21:02:48.690Z,99.90
2018-02-14T21:05:16.825Z,82.45
2018-02-14T21:07:45.785Z,97.65
2018-02-14T21:10:13.969Z,101.78
2018-02-14T21:12:42.190Z,112.15
2018-02-14T21:15:10.681Z,97.18
2018-02-14T21:17:38.834Z,109.37
2018-02-14T21:20:07.741Z,108.43
2018-02-14T21:22:35.937Z,104.60
2018-02-14T21:25:04.114Z,94.75
2018-02-14T21:27:32.645Z,102.10
2018-02-14T21:30:01.561Z,82.15
2018-02-14T21:32:29.697Z,95.82
2018-02-14T21:34:57.918Z,101.70
2018-02-14T21:37:26.061Z,94.05
2018-02-14T21:39:54.965Z,85.85
2018-02-14T21:42:23.158Z,83.60
2018-02-14T21:44:51.298Z,78.32
2018-02-14T21:47:20.213Z,69.55
2018-02-14T21:49:48.490Z,76.60
2018-02-14T21:52:16.655Z,78.90
2018-02-14T21:54:44.846Z,78.75
2018-02-14T21:57:13.006Z,73.53
2018-02-14T21:59:41.188Z,66.85
2018-02-14T22:02:09.326Z,65.93
2018-02-14T22:04:38.253Z,70.37
2018-02-14T22:07:06.384Z,64.50
2018-02-14T22:09:35.365Z,66.50
2018-02-14T22:12:04.279Z,65.07
2018-02-14T22:14:32.473Z,62.95
2018-02-14T22:17:00.676Z,68.62
2018-02-14T22:19:28.927Z,60.42
2018-02-14T22:21:57.057Z,59.55
2018-02-14T22:24:26.989Z,72.18
2018-02-14T22:26:55.125Z,59.13
2018-02-14T22:29:23.260Z,62.25
2018-02-14T22:31:51.426Z,63.85
2018-02-14T22:34:19.557Z,68.00
2018-02-14T22:36:48.467Z,68.32
2018-02-14T22:39:16.681Z,60.08
2018-02-14T22:41:44.813Z,60.03
2018-02-14T22:44:12.956Z,72.03
2018-02-14T22:46:41.330Z,63.95
2018-02-14T22:49:09.461Z,61.70
2018-02-14T22:51:38.180Z,64.90
2018-02-14T22:54:06.329Z,71.22
2018-02-14T22:56:34.490Z,61.30
2018-02-14T22:59:02.753Z,77.62
2018-02-14T23:01:30.890Z,62.78
2018-02-14T23:03:59.794Z,63.05
2018-02-14T23:06:27.941Z,63.38
2018-02-14T23:08:56.171Z,53.55
2018-02-14T23:11:24.347Z,57.67
2018-02-14T23:13:52.481Z,67.78
2018-02-14T23:16:21.382Z,69.10
2018-02-14T23:18:49.575Z,69.15
2018-02-14T23:21:17.717Z,65.25
2018-02-14T23:23:46.889Z,71.30
2018-02-14T23:26:15.065Z,70.00
2018-02-14T23:28:43.293Z,70.22
2018-02-14T23:31:11.429Z,66.68
2018-02-14T23:33:40.355Z,78.28
2018-02-14T23:36:08.492Z,65.50
2018-02-14T23:38:37.494Z,63.83
2018-02-14T23:41:05.856Z,86.90
2018-02-14T23:43:34.765Z,75.55
2018-02-14T23:46:02.945Z,73.22
2018-02-14T23:48:31.091Z,92.90
2018-02-14T23:50:59.999Z,70.05
2018-02-14T23:53:28.169Z,75.50
2018-02-14T23:55:56.365Z,72.22
2018-02-14T23:58:24.769Z,80.05
